Terminal Aerodrome Forecast
Issued by NWS

Home | Current Version | Previous Version | Text Only | Print | Product List | Glossary On
Versions: 1 2 3 4 5 6 7 8 9 10 11 12 13 14 15 16 17 18 19 20 21 22 23 24 25 26 27 28 29 30 31 32 33 34 35 36 37 38 39 40 41 42
000
FTAK31 PAFA 282331
TAFAOM
TAF
PAOM 282331Z 2900/2924 13013KT P6SM -RA FEW005 BKN050 OVC060
     FM290200 14010KT 6SM -RA OVC015
     FM290500 14009KT 2SM -RA BR OVC015
     FM291000 12006KT 6SM -SHRA BR OVC015=

USA.gov is the U.S. government's official web portal to all federal, state and local government web resources and services.